Latest Weather Observations for Legendre Island

IDW60801

Issued at 12:32 pm WST Sunday 21 December 2014 (issued every 30 minutes, with the page automatically refreshed every 10 minutes)

About weather observations | Map of weather stations | Latest weather observations for WA | Other Formats
Station Details ID: 004095 Name: LEGENDRE ISLAND Lat: -20.36 Lon: 116.84 Height: 29.0 m
Data from the previous 72 hours. | See also: Recent months for locations in Western Australia
Date/Time
WST
Temp
°C
App
Temp
°C
Dew
Point
Rel
Hum
%
Delta-T
°C
Wind Press
QNH
hPa
Press
MSL
hPa
Rain
since 9 am
mm
Dir
 
Spd
km/h
Gust
km/h
Spd
kts
Gust
kts
21/12:30pm 30.0 31.8 24.2 71 4.0 WNW 22 28 12 15 1007.8 1007.6 -
21/12:00pm 30.4 32.6 24.3 70 4.3 WNW 20 26 11 14 1008.2 1008.0 -
21/11:30am 30.6 32.6 24.5 70 4.3 W 22 28 12 15 1008.5 1008.3 -
21/11:00am 30.3 32.6 24.4 70 4.1 WNW 20 24 11 13 1008.5 1008.3 -
21/10:30am 29.9 31.6 24.1 71 4.0 W 22 28 12 15 1008.8 1008.6 -
21/10:00am 29.5 30.8 24.1 72 3.8 W 24 28 13 15 1008.8 1008.6 -
21/09:30am 29.6 31.4 24.2 73 3.8 W 22 28 12 15 1008.8 1008.6 -
21/09:00am 29.1 30.5 24.2 75 3.4 W 24 28 13 15 1008.7 1008.5 -
21/08:30am 28.7 30.5 24.3 77 3.1 W 22 28 12 15 1008.6 1008.4 -
21/08:00am 28.4 29.9 24.4 79 2.8 WSW 24 28 13 15 1008.5 1008.3 -
21/07:30am 27.9 29.9 24.5 82 2.4 WSW 22 28 12 15 1008.6 1008.4 -
21/07:00am 27.1 29.1 24.6 86 1.7 WSW 22 28 12 15 1008.4 1008.2 -
21/06:30am 26.5 29.0 24.7 90 1.3 WSW 20 24 11 13 1008.3 1008.1 -
21/06:00am 25.8 27.7 24.4 92 1.0 W 22 24 12 13 1008.1 1007.9 -
21/05:30am 25.7 27.3 23.9 90 1.2 WSW 22 26 12 14 1008.0 1007.8 -
21/05:00am 25.7 27.0 23.4 87 1.6 WSW 22 26 12 14 1007.9 1007.7 -
21/04:30am 25.7 26.7 22.8 84 2.0 WSW 22 28 12 15 1007.5 1007.3 -
21/04:00am 25.8 26.6 23.1 85 1.8 W 24 28 13 15 1007.4 1007.2 -
21/03:30am 25.7 27.3 23.2 86 1.7 W 20 24 11 13 1007.4 1007.2 -
21/03:00am 25.7 26.8 23.0 85 1.8 W 22 28 12 15 1007.4 1007.2 -
21/02:30am 25.8 25.6 22.7 83 2.1 WSW 28 33 15 18 1007.1 1006.9 -
21/02:00am 25.8 24.8 21.9 79 2.6 W 30 33 16 18 1007.6 1007.4 -
21/01:30am 25.6 24.2 21.9 80 2.5 WSW 32 39 17 21 1007.4 1007.2 -
21/01:00am 25.4 25.3 22.3 83 2.1 W 26 33 14 18 1007.9 1007.7 -
21/12:30am 25.4 26.4 22.9 86 1.7 W 22 26 12 14 1008.8 1008.6 -
21/12:00am 25.4 27.6 23.3 88 1.4 W 17 24 9 13 1009.0 1008.8 -
 
Date/Time
WST
Temp
°C
App
Temp
°C
Dew
Point
Rel
Hum
%
Delta-T
°C
Wind Press
QNH
hPa
Press
MSL
hPa
Rain
since 9 am
mm
Dir
 
Spd
km/h
Gust
km/h
Spd
kts
Gust
kts
20/11:30pm 25.5 26.3 23.2 87 1.6 W 24 28 13 15 1009.1 1008.9 -
20/11:00pm 25.7 26.1 23.2 86 1.7 W 26 30 14 16 1009.2 1009.0 -
20/10:30pm 25.8 25.9 22.5 82 2.2 W 26 33 14 18 1009.1 1008.9 -
20/10:00pm 25.8 25.9 22.5 82 2.2 WSW 26 32 14 17 1009.0 1008.8 -
20/09:30pm 25.9 25.9 23.0 84 2.0 W 28 33 15 18 1008.4 1008.2 -
20/09:00pm 25.9 26.1 23.4 86 1.7 W 28 32 15 17 1008.2 1008.0 -
20/08:30pm 25.9 26.6 23.6 87 1.6 W 26 30 14 16 1008.0 1007.8 -
20/08:00pm 25.9 26.5 23.4 86 1.7 W 26 32 14 17 1007.8 1007.6 -
20/07:30pm 26.1 26.8 23.6 86 1.7 WNW 26 32 14 17 1007.6 1007.4 -
20/07:00pm 26.3 27.1 23.2 83 2.1 WNW 24 30 13 16 1007.4 1007.2 -
20/06:30pm 26.7 27.3 22.8 79 2.6 W 24 32 13 17 1006.8 1006.6 -
20/06:00pm 27.5 28.1 23.5 79 2.7 W 26 30 14 16 1006.7 1006.5 -
20/05:30pm 28.1 29.2 23.7 77 3.0 WNW 24 30 13 16 1006.8 1006.6 -
20/05:00pm 28.0 28.8 23.2 75 3.3 WNW 24 28 13 15 1006.9 1006.7 -
20/04:30pm 28.6 29.5 23.3 73 3.6 WNW 24 30 13 16 1006.8 1006.6 -
20/04:00pm 29.3 30.2 24.0 73 3.7 WNW 26 30 14 16 1006.8 1006.6 -
20/03:30pm 29.4 30.1 23.6 71 4.0 WNW 26 32 14 17 1006.8 1006.6 -
20/03:00pm 30.1 30.5 23.8 69 4.4 WNW 28 32 15 17 1007.1 1006.9 -
20/02:30pm 29.8 30.4 23.5 69 4.3 WNW 26 30 14 16 1007.4 1007.2 -
20/02:00pm 30.3 31.3 23.5 67 4.7 WNW 24 28 13 15 1007.9 1007.7 -
20/01:30pm 30.0 31.5 23.7 69 4.4 WNW 22 26 12 14 1008.4 1008.2 -
20/01:00pm 30.7 32.2 24.4 69 4.4 WNW 24 30 13 16 1008.7 1008.5 -
20/12:30pm 29.7 30.3 23.4 69 4.3 WNW 26 30 14 16 1009.1 1008.9 -
20/12:00pm 30.0 30.2 23.4 67 4.6 WNW 28 32 15 17 1009.3 1009.1 -
20/11:30am 30.6 31.2 23.5 66 4.9 WNW 26 32 14 17 1009.6 1009.4 -
20/11:00am 30.4 31.3 23.3 66 4.9 WNW 24 30 13 16 1010.1 1009.9 -
20/10:30am 29.6 31.5 23.8 71 4.0 WNW 20 26 11 14 1010.5 1010.3 -
20/10:00am 29.8 32.2 23.7 70 4.2 WNW 17 24 9 13 1010.7 1010.5 -
20/09:30am 28.7 30.4 22.4 68 4.3 NW 17 20 9 11 1010.8 1010.6 -
20/09:00am 29.0 31.5 22.5 68 4.4 WNW 13 17 7 9 1011.1 1010.9 -
20/08:30am 28.6 31.3 22.1 68 4.4 WNW 11 15 6 8 1011.1 1010.9 -
20/08:00am 29.2 32.2 22.7 68 4.4 W 11 15 6 8 1010.9 1010.7 -
20/07:30am 28.7 30.5 21.2 64 5.0 WSW 13 19 7 10 1010.6 1010.4 -
20/07:00am 28.1 29.6 20.6 63 5.0 WSW 13 17 7 9 1010.3 1010.1 -
20/06:30am 27.4 29.7 21.4 70 4.0 SW 11 15 6 8 1010.1 1009.9 -
20/06:00am 25.7 29.4 23.2 86 1.7 SW 9 11 5 6 1009.9 1009.7 -
20/05:30am 25.4 28.4 23.3 88 1.4 SW 13 17 7 9 1009.6 1009.4 -
20/05:00am 25.4 28.1 23.5 89 1.3 SW 15 19 8 10 1009.1 1008.9 -
20/04:30am 25.5 27.9 23.6 89 1.3 SW 17 20 9 11 1009.1 1008.9 -
20/04:00am 25.6 28.0 23.7 89 1.3 SSW 17 20 9 11 1009.2 1009.0 -
20/03:30am 25.9 27.7 23.2 85 1.8 SSW 19 22 10 12 1009.3 1009.1 -
20/03:00am 25.8 26.9 23.1 85 1.8 SW 22 26 12 14 1009.1 1008.9 -
20/02:30am 25.7 27.3 23.2 86 1.7 SW 20 26 11 14 1009.0 1008.8 -
20/02:00am 25.4 26.8 23.6 90 1.2 SW 22 26 12 14 1009.1 1008.9 -
20/01:30am 25.6 27.4 24.2 92 1.0 SW 22 26 12 14 1009.4 1009.2 -
20/01:00am 25.3 27.4 24.1 93 0.8 SW 20 26 11 14 1009.5 1009.3 -
20/12:30am 25.1 27.8 24.1 94 0.7 SW 17 22 9 12 1010.1 1009.9 -
20/12:00am 25.3 27.1 24.3 94 0.7 SW 22 26 12 14 1010.6 1010.4 -
 
Date/Time
WST
Temp
°C
App
Temp
°C
Dew
Point
Rel
Hum
%
Delta-T
°C
Wind Press
QNH
hPa
Press
MSL
hPa
Rain
since 9 am
mm
Dir
 
Spd
km/h
Gust
km/h
Spd
kts
Gust
kts
19/11:30pm 25.3 26.6 24.1 93 0.8 WSW 24 28 13 15 1010.8 1010.6 -
19/11:00pm 25.5 26.7 24.5 94 0.7 WSW 26 30 14 16 1011.1 1010.9 -
19/10:30pm 25.7 27.4 24.7 94 0.7 WSW 24 28 13 15 1011.3 1011.1 -
19/10:00pm 25.8 27.6 24.8 94 0.7 W 24 30 13 16 1011.5 1011.3 -
19/09:30pm 25.9 27.7 24.9 94 0.7 W 24 30 13 16 1011.3 1011.1 -
19/09:00pm 25.8 27.5 24.6 93 0.8 W 24 28 13 15 1011.0 1010.8 -
19/08:30pm 26.0 28.0 24.6 92 1.0 WNW 22 28 12 15 1010.9 1010.7 -
19/08:00pm 26.0 28.0 24.6 92 1.0 WNW 22 26 12 14 1010.7 1010.5 -
19/07:30pm 26.3 28.5 24.9 92 1.0 WNW 22 30 12 16 1010.2 1010.0 -
19/07:00pm 26.4 28.4 24.6 90 1.3 WNW 22 28 12 15 1010.0 1009.8 -
19/06:30pm 26.8 28.4 24.5 87 1.6 NW 24 30 13 16 1009.7 1009.5 -
19/06:00pm 27.4 29.2 24.3 83 2.2 WNW 22 28 12 15 1009.5 1009.3 -
19/05:30pm 27.8 29.6 24.2 81 2.5 NW 22 28 12 15 1009.5 1009.3 -
19/05:00pm 28.0 29.7 24.0 79 2.8 NW 22 28 12 15 1009.5 1009.3 -
19/04:30pm 28.6 30.2 23.9 75 3.2 NW 22 26 12 14 1009.3 1009.1 -
19/04:00pm 28.8 30.8 23.9 75 3.4 NW 20 24 11 13 1009.1 1008.9 -
19/03:30pm 29.0 30.7 23.4 72 3.8 NW 20 24 11 13 1009.0 1008.8 -
19/03:00pm 29.9 32.0 24.1 71 4.0 NW 20 24 11 13 1009.1 1008.9 -
19/02:30pm 29.8 31.3 23.0 67 4.7 WNW 20 26 11 14 1009.3 1009.1 -
19/02:00pm 29.8 32.0 24.0 71 4.0 NW 19 22 10 12 1009.5 1009.3 -
19/01:30pm 29.4 31.8 23.6 71 4.0 NNW 17 20 9 11 1009.7 1009.5 -
19/01:00pm 29.4 31.8 23.6 71 4.0 NW 17 20 9 11 1010.0 1009.8 -
19/12:30pm 30.3 33.2 24.4 70 4.1 NW 17 20 9 11 1010.0 1009.8 -
19/12:00pm 29.6 32.3 24.2 73 3.8 NNW 17 19 9 10 1010.3 1010.1 -
19/11:30am 29.4 31.9 23.8 72 3.9 NW 17 22 9 12 1010.6 1010.4 -
19/11:00am 29.9 32.6 24.1 71 4.0 WNW 17 20 9 11 1010.7 1010.5 -
19/10:30am 30.1 32.9 24.3 71 4.0 W 17 22 9 12 1010.8 1010.6 -
19/10:00am 29.2 30.9 23.4 71 4.0 W 20 24 11 13 1010.8 1010.6 -
19/09:30am 29.1 30.9 24.2 75 3.4 W 22 28 12 15 1010.8 1010.6 -
19/09:00am 28.9 30.9 24.5 77 3.1 W 22 30 12 16 1010.7 1010.5 -
19/08:30am 28.2 30.1 24.4 80 2.6 WNW 22 28 12 15 1010.7 1010.5 -
19/08:00am 27.7 29.8 24.7 84 2.1 WNW 22 26 12 14 1010.4 1010.2 -
19/07:30am 27.0 29.8 25.2 90 1.3 WNW 20 24 11 13 1010.2 1010.0 -
19/07:00am 26.4 29.5 25.7 96 0.5 WNW 20 24 11 13 1009.7 1009.5 -
19/06:30am 25.7 29.4 25.7 100 0.0 WNW 17 20 9 11 1009.6 1009.4 -
19/06:00am 25.2 28.6 25.2 100 0.0 WNW 17 20 9 11 1009.2 1009.0 -
19/05:30am 24.9 28.1 24.9 100 0.0 W 17 20 9 11 1008.9 1008.7 -
19/05:00am 25.1 28.0 25.1 100 0.0 WNW 19 24 10 13 1008.5 1008.3 -
19/04:30am 25.1 27.8 25.1 100 0.0 WNW 20 24 11 13 1008.4 1008.2 -
19/04:00am 25.0 27.8 25.0 100 0.0 WNW 19 22 10 12 1008.4 1008.2 -
19/03:30am 25.0 27.8 25.0 100 0.0 WNW 19 22 10 12 1008.4 1008.2 -
19/03:00am 25.1 27.8 25.1 100 0.0 WNW 20 24 11 13 1008.3 1008.1 -
19/02:30am 25.1 27.8 25.1 100 0.0 WNW 20 24 11 13 1008.2 1008.0 -
19/02:00am 25.2 28.2 25.2 100 0.0 WNW 19 22 10 12 1008.4 1008.2 -
19/01:30am 25.3 28.6 25.1 99 0.1 WNW 17 22 9 12 1008.4 1008.2 -
19/01:00am 25.3 28.5 25.0 98 0.2 WNW 17 20 9 11 1008.4 1008.2 -
19/12:30am 25.3 28.4 24.8 97 0.3 WNW 17 20 9 11 1008.6 1008.4 -
19/12:00am 25.4 28.3 24.5 95 0.6 WNW 17 22 9 12 1008.8 1008.6 -
 
Date/Time
WST
Temp
°C
App
Temp
°C
Dew
Point
Rel
Hum
%
Delta-T
°C
Wind Press
QNH
hPa
Press
MSL
hPa
Rain
since 9 am
mm
Dir
 
Spd
km/h
Gust
km/h
Spd
kts
Gust
kts
18/11:30pm 25.5 27.9 24.3 93 0.8 WNW 19 22 10 12 1009.0 1008.8 -
18/11:00pm 25.5 27.8 24.1 92 1.0 W 19 24 10 13 1009.0 1008.8 -
18/10:30pm 25.6 27.3 24.0 91 1.1 W 22 28 12 15 1008.8 1008.6 -
18/10:00pm 25.7 26.9 23.9 90 1.2 WNW 24 30 13 16 1008.4 1008.2 -
18/09:30pm 25.7 26.6 23.9 90 1.2 WNW 26 32 14 17 1008.2 1008.0 -
18/09:00pm 25.9 26.5 24.1 90 1.2 WNW 28 32 15 17 1007.9 1007.7 -
18/08:30pm 25.9 26.5 24.1 90 1.2 WNW 28 32 15 17 1007.7 1007.5 -
18/08:00pm 26.0 26.5 24.0 89 1.4 WNW 28 35 15 19 1007.3 1007.1 -
18/07:30pm 26.1 26.2 24.0 88 1.4 WNW 30 35 16 19 1006.9 1006.7 -
18/07:00pm 26.1 25.8 23.8 87 1.6 WNW 32 37 17 20 1006.6 1006.4 -
18/06:30pm 26.6 26.0 23.7 84 2.0 WNW 33 39 18 21 1006.1 1005.9 -
18/06:00pm 27.2 26.9 23.2 79 2.7 WNW 30 35 16 19 1005.8 1005.6 -
18/05:30pm 27.9 27.6 23.3 76 3.1 WNW 30 35 16 19 1005.5 1005.3 -
18/05:00pm 28.8 28.8 23.7 74 3.5 W 30 37 16 20 1005.3 1005.1 -
18/04:30pm 28.6 28.3 23.3 73 3.6 WNW 30 37 16 20 1005.4 1005.2 -
18/04:00pm 29.3 29.3 23.7 72 3.9 W 30 37 16 20 1005.5 1005.3 -
18/03:30pm 29.5 29.7 24.1 72 3.7 WNW 30 37 16 20 1005.7 1005.5 -
18/03:00pm 29.7 29.6 23.6 69 4.2 W 30 35 16 19 1005.9 1005.7 -
18/02:30pm 30.0 30.9 23.9 70 4.2 W 26 32 14 17 1006.1 1005.9 -
18/02:00pm 30.3 30.7 23.7 68 4.6 W 28 35 15 19 1006.2 1006.0 -
18/01:30pm 30.2 30.2 23.1 65 4.9 W 28 32 15 17 1006.3 1006.1 -
18/01:00pm 31.1 30.7 23.0 62 5.6 W 30 35 16 19 1006.4 1006.2 -

Other Formats:

Comma delimited format used in spreadsheet applications
http://www.bom.gov.au/fwo/IDW60801/IDW60801.94307.axf

JavaScript Object Notation format (JSON) in row-major order
http://www.bom.gov.au/fwo/IDW60801/IDW60801.94307.json